Time;durP1;ratioP1;P1;durP2;ratioP2;P2;SDS_P1;SDS_P2;PMS_P1;PMS_P2;Temp;Humidity;BMP_temperature;BMP_pressure;BME280_temperature;BME280_humidity;BME280_pressure;Samples;Min_cycle;Max_cycle;Signal;HPM_P1;HPM_P2
2021/11/22 00:00:33;;;;;;;4.10;1.08;;;;;;;;;;5014812;28;20021;-82
2021/11/22 00:03:02;;;;;;;4.50;1.38;;;;;;;;;;5023079;28;20017;-85
2021/11/22 00:05:27;;;;;;;3.40;1.08;;;;;;;;;;5010301;28;20080;-80
2021/11/22 00:07:53;;;;;;;6.05;1.35;;;;;;;;;;5025383;28;20034;-80
2021/11/22 00:10:19;;;;;;;4.82;1.40;;;;;;;;;;5006823;28;20041;-78
2021/11/22 00:12:45;;;;;;;6.38;1.38;;;;;;;;;;5034973;28;20385;-77
2021/11/22 00:15:14;;;;;;;3.97;1.10;;;;;;;;;;5031119;28;20036;-77
2021/11/22 00:17:40;;;;;;;2.83;1.00;;;;;;;;;;5030780;28;20046;-85
2021/11/22 00:20:12;;;;;;;4.97;1.00;;;;;;;;;;5020271;28;20034;-78
2021/11/22 00:22:39;;;;;;;3.70;1.42;;;;;;;;;;5030488;28;20025;-80
2021/11/22 00:25:06;;;;;;;2.45;0.70;;;;;;;;;;5026128;28;20028;-81
2021/11/22 00:27:31;;;;;;;5.10;1.10;;;;;;;;;;5034561;28;20037;-85
2021/11/22 00:29:57;;;;;;;4.18;1.10;;;;;;;;;;5017642;28;20412;-81
2021/11/22 00:32:23;;;;;;;4.82;1.58;;;;;;;;;;5018700;28;20033;-80
2021/11/22 00:34:54;;;;;;;4.78;1.00;;;;;;;;;;5034667;28;20036;-81
2021/11/22 00:37:22;;;;;;;4.80;0.95;;;;;;;;;;5029416;28;20033;-81
2021/11/22 00:39:47;;;;;;;2.75;0.77;;;;;;;;;;5033599;28;20049;-82
2021/11/22 00:42:13;;;;;;;4.57;0.90;;;;;;;;;;5034899;28;20440;-80
2021/11/22 00:44:41;;;;;;;3.58;1.00;;;;;;;;;;5012730;28;20021;-86
2021/11/22 00:47:07;;;;;;;5.18;1.00;;;;;;;;;;5029208;28;20091;-85
2021/11/22 00:49:34;;;;;;;4.97;1.15;;;;;;;;;;5014761;28;20366;-85
2021/11/22 00:52:00;;;;;;;2.92;0.93;;;;;;;;;;5034064;28;20022;-82
2021/11/22 00:54:26;;;;;;;2.03;1.00;;;;;;;;;;5017171;28;20041;-79
2021/11/22 00:56:51;;;;;;;2.88;1.00;;;;;;;;;;5015962;28;20494;-85
2021/11/22 00:59:17;;;;;;;4.47;1.00;;;;;;;;;;5015289;28;20029;-82
2021/11/22 01:01:45;;;;;;;2.92;1.20;;;;;;;;;;5029741;28;20033;-82
2021/11/22 01:04:11;;;;;;;3.58;0.98;;;;;;;;;;5039853;28;20036;-82
2021/11/22 01:06:36;;;;;;;5.18;1.10;;;;;;;;;;5015637;28;20029;-85
2021/11/22 01:09:02;;;;;;;1.75;0.80;;;;;;;;;;5030677;28;20056;-80
2021/11/22 01:11:27;;;;;;;4.80;1.38;;;;;;;;;;5015529;28;20496;-78
2021/11/22 01:13:53;;;;;;;4.85;1.10;;;;;;;;;;5039852;28;20495;-82
2021/11/22 01:16:18;;;;;;;5.28;1.10;;;;;;;;;;5012369;28;20366;-85
2021/11/22 01:18:43;;;;;;;4.93;1.08;;;;;;;;;;5012283;28;20119;-77
2021/11/22 01:21:09;;;;;;;3.45;1.10;;;;;;;;;;5015171;28;20026;-80
2021/11/22 01:23:34;;;;;;;3.33;1.05;;;;;;;;;;5037825;28;20025;-81
2021/11/22 01:26:00;;;;;;;4.43;1.00;;;;;;;;;;5020312;28;20084;-80
2021/11/22 01:28:26;;;;;;;2.50;1.00;;;;;;;;;;5019892;28;20038;-80
2021/11/22 01:30:52;;;;;;;4.30;0.90;;;;;;;;;;5015430;28;20472;-80
2021/11/22 01:33:17;;;;;;;4.82;1.23;;;;;;;;;;5012086;28;20030;-81
2021/11/22 01:35:44;;;;;;;3.53;1.42;;;;;;;;;;5021772;28;20105;-80
2021/11/22 01:38:10;;;;;;;2.80;0.88;;;;;;;;;;5021301;28;20428;-82
2021/11/22 01:40:36;;;;;;;2.45;1.00;;;;;;;;;;5028425;28;20036;-81
2021/11/22 01:43:02;;;;;;;5.10;0.98;;;;;;;;;;5007228;28;20026;-81
2021/11/22 01:45:27;;;;;;;4.07;1.10;;;;;;;;;;5030590;28;20087;-85
2021/11/22 01:47:55;;;;;;;4.07;1.05;;;;;;;;;;5026745;28;20045;-80
2021/11/22 01:50:22;;;;;;;5.78;1.02;;;;;;;;;;5011768;28;20481;-80
2021/11/22 01:52:49;;;;;;;3.88;0.98;;;;;;;;;;5030438;28;20091;-80
2021/11/22 01:55:18;;;;;;;3.20;0.77;;;;;;;;;;5015402;28;20026;-82
2021/11/22 01:57:45;;;;;;;5.03;1.13;;;;;;;;;;5022784;28;20527;-81
2021/11/22 02:00:32;;;;;;;1.85;0.88;;;;;;;;;;5022627;28;20030;-84
2021/11/22 02:02:58;;;;;;;2.92;1.00;;;;;;;;;;5023142;28;20137;-82
2021/11/22 02:05:24;;;;;;;2.40;0.85;;;;;;;;;;5032509;28;20025;-77
2021/11/22 02:07:50;;;;;;;4.53;1.00;;;;;;;;;;5028432;28;20025;-80
2021/11/22 02:10:17;;;;;;;9.73;1.20;;;;;;;;;;4999565;28;20501;-78
2021/11/22 02:12:43;;;;;;;4.90;1.23;;;;;;;;;;5003181;28;20030;-81
2021/11/22 02:15:10;;;;;;;4.43;1.17;;;;;;;;;;5004655;28;20038;-79
2021/11/22 02:17:38;;;;;;;2.60;1.05;;;;;;;;;;5013337;28;20389;-82
2021/11/22 02:20:08;;;;;;;3.88;0.80;;;;;;;;;;5003082;28;20037;-86
2021/11/22 02:22:34;;;;;;;4.25;0.82;;;;;;;;;;4992248;28;20396;-85
2021/11/22 02:25:01;;;;;;;3.95;0.98;;;;;;;;;;5010445;28;20029;-78
2021/11/22 02:27:26;;;;;;;1.65;0.90;;;;;;;;;;4994544;28;20037;-82
2021/11/22 02:29:52;;;;;;;3.83;1.08;;;;;;;;;;5008117;28;20042;-82
2021/11/22 02:32:17;;;;;;;2.80;1.10;;;;;;;;;;5009824;28;20060;-77
2021/11/22 02:34:43;;;;;;;5.28;1.10;;;;;;;;;;5016774;28;20034;-81
2021/11/22 02:37:09;;;;;;;5.35;1.33;;;;;;;;;;4988214;28;20057;-86
2021/11/22 02:39:35;;;;;;;1.80;1.02;;;;;;;;;;4992482;28;20075;-77
2021/11/22 02:42:00;;;;;;;4.45;1.30;;;;;;;;;;5013615;28;20476;-85
2021/11/22 02:44:26;;;;;;;3.15;1.00;;;;;;;;;;4999236;28;20095;-81
2021/11/22 02:46:51;;;;;;;4.65;1.65;;;;;;;;;;5015570;28;20068;-81
2021/11/22 02:49:16;;;;;;;3.08;1.10;;;;;;;;;;4997827;28;20029;-78
2021/11/22 02:51:42;;;;;;;3.35;1.10;;;;;;;;;;5014978;28;20033;-80
2021/11/22 02:54:08;;;;;;;3.70;1.10;;;;;;;;;;5002372;28;20034;-80
2021/11/22 02:56:34;;;;;;;2.55;1.10;;;;;;;;;;4997982;28;20029;-85
2021/11/22 02:59:01;;;;;;;4.30;1.40;;;;;;;;;;5013776;28;20037;-77
2021/11/22 03:01:27;;;;;;;3.65;1.13;;;;;;;;;;4999620;28;20034;-77
2021/11/22 03:03:55;;;;;;;3.95;1.10;;;;;;;;;;4993552;28;21245;-85
2021/11/22 03:06:22;;;;;;;4.07;1.20;;;;;;;;;;4996447;28;20666;-85
2021/11/22 03:08:47;;;;;;;4.47;1.20;;;;;;;;;;5014386;28;20131;-77
2021/11/22 03:11:14;;;;;;;3.42;0.95;;;;;;;;;;5012771;28;20061;-85
2021/11/22 03:13:41;;;;;;;3.90;1.20;;;;;;;;;;5015731;28;20477;-86
2021/11/22 03:16:07;;;;;;;3.63;0.90;;;;;;;;;;5030168;28;20069;-80
2021/11/22 03:18:33;;;;;;;3.65;1.10;;;;;;;;;;5015230;28;20392;-79
2021/11/22 03:20:59;;;;;;;3.05;0.95;;;;;;;;;;5016554;28;20159;-86
2021/11/22 03:23:25;;;;;;;2.75;1.17;;;;;;;;;;5013787;28;20029;-80
2021/11/22 03:25:51;;;;;;;3.75;1.10;;;;;;;;;;5031817;28;21597;-82
2021/11/22 03:28:19;;;;;;;2.55;1.00;;;;;;;;;;5028900;28;20034;-82
2021/11/22 03:30:46;;;;;;;4.28;0.90;;;;;;;;;;5032583;28;20017;-81
2021/11/22 03:33:11;;;;;;;3.92;1.33;;;;;;;;;;5011695;28;20045;-80
2021/11/22 03:35:36;;;;;;;8.25;1.10;;;;;;;;;;5018743;28;20029;-80
2021/11/22 03:38:02;;;;;;;4.88;0.90;;;;;;;;;;5014677;28;20039;-85
2021/11/22 03:40:28;;;;;;;5.63;1.00;;;;;;;;;;5033243;28;20029;-77
2021/11/22 03:45:31;;;;;;;3.17;0.82;;;;;;;;;;5032351;28;20029;-85
2021/11/22 03:47:58;;;;;;;5.85;1.00;;;;;;;;;;5017525;28;20103;-85
2021/11/22 03:50:23;;;;;;;3.05;0.95;;;;;;;;;;5034410;28;20469;-77
2021/11/22 03:52:49;;;;;;;6.15;1.13;;;;;;;;;;5020567;28;20076;-85
2021/11/22 03:55:14;;;;;;;2.92;1.23;;;;;;;;;;5031922;28;20029;-77
2021/11/22 03:57:40;;;;;;;3.42;0.90;;;;;;;;;;5033972;28;20104;-78
2021/11/22 04:00:06;;;;;;;6.35;1.35;;;;;;;;;;5020827;28;20033;-77
2021/11/22 04:02:31;;;;;;;4.47;1.13;;;;;;;;;;5033880;28;20025;-81
2021/11/22 04:04:57;;;;;;;3.05;0.98;;;;;;;;;;5036806;28;20048;-81
2021/11/22 04:07:22;;;;;;;2.80;1.20;;;;;;;;;;5028895;28;20094;-78
2021/11/22 04:09:48;;;;;;;3.38;1.00;;;;;;;;;;5016759;28;20508;-84
2021/11/22 04:12:13;;;;;;;4.30;1.10;;;;;;;;;;5031759;28;20408;-81
2021/11/22 04:14:38;;;;;;;8.77;1.38;;;;;;;;;;5032102;28;20037;-86
2021/11/22 04:17:04;;;;;;;3.40;0.90;;;;;;;;;;5032464;28;20100;-78
2021/11/22 04:19:29;;;;;;;5.22;1.15;;;;;;;;;;5033493;28;20251;-78
2021/11/22 04:21:55;;;;;;;4.47;1.00;;;;;;;;;;5015333;28;20033;-85
2021/11/22 04:24:20;;;;;;;3.08;1.20;;;;;;;;;;5035191;28;20056;-80
2021/11/22 04:26:45;;;;;;;6.28;1.23;;;;;;;;;;5015301;28;20039;-85
2021/11/22 04:29:11;;;;;;;3.38;1.23;;;;;;;;;;5034201;28;20033;-77
2021/11/22 04:31:36;;;;;;;6.70;1.00;;;;;;;;;;5032712;28;20068;-81
2021/11/22 04:34:02;;;;;;;4.15;1.05;;;;;;;;;;5029392;28;20030;-85
2021/11/22 04:36:28;;;;;;;3.60;1.30;;;;;;;;;;5032406;28;20091;-77
2021/11/22 04:38:53;;;;;;;2.42;1.10;;;;;;;;;;5018804;28;20022;-82
2021/11/22 04:41:20;;;;;;;5.25;1.23;;;;;;;;;;5010133;28;20033;-82
2021/11/22 04:43:46;;;;;;;4.00;1.08;;;;;;;;;;5010136;28;20018;-77
2021/11/22 04:46:11;;;;;;;4.20;1.08;;;;;;;;;;5020084;28;20392;-85
2021/11/22 04:48:36;;;;;;;2.75;0.90;;;;;;;;;;5012273;28;20025;-85
2021/11/22 04:51:02;;;;;;;5.15;1.20;;;;;;;;;;5032469;28;20435;-81
2021/11/22 04:53:27;;;;;;;2.78;0.93;;;;;;;;;;5036990;28;20511;-81
2021/11/22 04:55:53;;;;;;;3.30;0.98;;;;;;;;;;5013311;28;20472;-77
2021/11/22 04:58:18;;;;;;;2.45;0.98;;;;;;;;;;5030840;28;20021;-81
2021/11/22 05:00:44;;;;;;;3.90;1.23;;;;;;;;;;5010568;28;20480;-80
2021/11/22 05:03:11;;;;;;;5.35;1.17;;;;;;;;;;5019810;28;20044;-77
2021/11/22 05:05:36;;;;;;;4.18;1.17;;;;;;;;;;5014194;28;20029;-82
2021/11/22 05:08:06;;;;;;;2.72;0.98;;;;;;;;;;5031376;28;20029;-81
2021/11/22 05:10:35;;;;;;;3.58;0.90;;;;;;;;;;5031806;28;20504;-85
2021/11/22 05:13:00;;;;;;;2.55;1.10;;;;;;;;;;5013614;28;20120;-80
2021/11/22 05:15:26;;;;;;;2.45;0.80;;;;;;;;;;5031665;28;20061;-80
2021/11/22 05:17:51;;;;;;;2.75;0.90;;;;;;;;;;5014167;28;20056;-85
2021/11/22 05:20:16;;;;;;;4.57;0.98;;;;;;;;;;5015559;28;20496;-79
2021/11/22 05:22:41;;;;;;;4.40;1.08;;;;;;;;;;5027993;28;20688;-82
2021/11/22 05:25:07;;;;;;;2.30;0.88;;;;;;;;;;5033000;28;20033;-80
2021/11/22 05:27:32;;;;;;;2.03;0.85;;;;;;;;;;5030438;28;20029;-79
2021/11/22 05:29:58;;;;;;;2.67;0.90;;;;;;;;;;5030456;28;20029;-80
2021/11/22 05:32:24;;;;;;;5.95;1.10;;;;;;;;;;5030429;28;20053;-82
2021/11/22 05:34:52;;;;;;;6.43;0.90;;;;;;;;;;5031889;28;20026;-80
2021/11/22 05:37:17;;;;;;;3.80;1.10;;;;;;;;;;5032217;28;20032;-85
2021/11/22 05:39:43;;;;;;;5.50;1.50;;;;;;;;;;5025629;28;20029;-82
2021/11/22 05:42:09;;;;;;;2.03;0.90;;;;;;;;;;5028015;28;20124;-80
2021/11/22 05:44:35;;;;;;;3.25;0.98;;;;;;;;;;5030376;28;20109;-82
2021/11/22 05:47:03;;;;;;;2.25;0.90;;;;;;;;;;5031527;28;20473;-85
2021/11/22 05:49:31;;;;;;;3.03;0.90;;;;;;;;;;5013696;28;20104;-78
2021/11/22 05:51:57;;;;;;;6.10;1.02;;;;;;;;;;5014979;28;20040;-81
2021/11/22 05:54:24;;;;;;;6.93;1.13;;;;;;;;;;5030560;28;20033;-82
2021/11/22 05:56:50;;;;;;;3.58;1.30;;;;;;;;;;5032068;28;20060;-85
2021/11/22 05:59:16;;;;;;;4.90;1.20;;;;;;;;;;5029556;28;20415;-82
2021/11/22 06:01:41;;;;;;;6.47;1.00;;;;;;;;;;5013824;28;20120;-85
2021/11/22 06:04:06;;;;;;;8.18;1.10;;;;;;;;;;5011607;28;20018;-80
2021/11/22 06:06:32;;;;;;;4.95;0.95;;;;;;;;;;5029498;28;20029;-78
2021/11/22 06:08:57;;;;;;;2.42;1.00;;;;;;;;;;5010120;28;20060;-84
2021/11/22 06:11:22;;;;;;;4.22;1.20;;;;;;;;;;5031617;28;20037;-82
2021/11/22 06:13:48;;;;;;;3.55;1.20;;;;;;;;;;5031110;28;20109;-84
2021/11/22 06:16:13;;;;;;;4.07;1.00;;;;;;;;;;5007388;28;20499;-79
2021/11/22 06:18:38;;;;;;;2.05;1.00;;;;;;;;;;5022127;28;20092;-82
2021/11/22 06:21:04;;;;;;;5.80;1.00;;;;;;;;;;5013218;28;20028;-81
2021/11/22 06:23:29;;;;;;;2.05;0.88;;;;;;;;;;5015127;28;20013;-80
2021/11/22 06:25:55;;;;;;;4.18;0.93;;;;;;;;;;5014308;28;20535;-81
2021/11/22 06:28:20;;;;;;;3.90;1.02;;;;;;;;;;5016977;28;20037;-85
2021/11/22 06:30:46;;;;;;;5.00;1.02;;;;;;;;;;5014250;28;20026;-81
2021/11/22 06:33:12;;;;;;;4.47;0.98;;;;;;;;;;5014470;28;20117;-77
2021/11/22 06:35:37;;;;;;;3.95;1.10;;;;;;;;;;5012410;28;20060;-85
2021/11/22 06:38:03;;;;;;;3.47;1.23;;;;;;;;;;5032395;28;20025;-82
2021/11/22 06:40:29;;;;;;;4.82;1.20;;;;;;;;;;5019853;28;20029;-85
2021/11/22 06:42:54;;;;;;;5.85;1.27;;;;;;;;;;5015150;28;20026;-85
2021/11/22 06:45:20;;;;;;;1.77;1.00;;;;;;;;;;5011704;28;20444;-86
2021/11/22 06:47:46;;;;;;;2.08;1.00;;;;;;;;;;5034393;28;20033;-85
2021/11/22 06:50:11;;;;;;;2.55;0.98;;;;;;;;;;5030744;28;20369;-77
2021/11/22 06:52:37;;;;;;;2.13;0.93;;;;;;;;;;5014721;28;20036;-86
2021/11/22 06:55:04;;;;;;;4.53;1.77;;;;;;;;;;5011882;28;20083;-85
2021/11/22 06:57:30;;;;;;;3.22;1.30;;;;;;;;;;5027585;28;20049;-81
2021/11/22 06:59:55;;;;;;;2.50;1.20;;;;;;;;;;5011411;28;20416;-80
2021/11/22 07:02:24;;;;;;;4.78;0.93;;;;;;;;;;5028615;28;20064;-85
2021/11/22 07:04:49;;;;;;;1.80;1.00;;;;;;;;;;5012006;28;20029;-84
2021/11/22 07:07:15;;;;;;;2.00;0.95;;;;;;;;;;5014225;28;20025;-81
2021/11/22 07:09:41;;;;;;;2.63;1.33;;;;;;;;;;5029414;28;20404;-81
2021/11/22 07:12:07;;;;;;;2.33;0.95;;;;;;;;;;5013174;28;20024;-81
2021/11/22 07:14:36;;;;;;;5.60;1.30;;;;;;;;;;5012248;28;20031;-79
2021/11/22 07:17:02;;;;;;;2.10;1.10;;;;;;;;;;5012577;28;20384;-80
2021/11/22 07:19:27;;;;;;;1.80;1.02;;;;;;;;;;5022947;28;20103;-78
2021/11/22 07:21:53;;;;;;;3.03;1.00;;;;;;;;;;5013393;28;20025;-85
2021/11/22 07:24:19;;;;;;;3.10;1.10;;;;;;;;;;5013023;28;20033;-84
2021/11/22 07:26:44;;;;;;;2.70;1.35;;;;;;;;;;5013293;28;20025;-81
2021/11/22 07:29:10;;;;;;;5.60;1.30;;;;;;;;;;5014829;28;20443;-77
2021/11/22 07:31:36;;;;;;;4.55;1.40;;;;;;;;;;5013027;28;20033;-82
2021/11/22 07:34:01;;;;;;;3.38;1.25;;;;;;;;;;5017353;28;20034;-85
2021/11/22 07:36:27;;;;;;;5.00;1.30;;;;;;;;;;5017363;28;20402;-77
2021/11/22 07:38:52;;;;;;;5.35;1.33;;;;;;;;;;5015180;28;20029;-85
2021/11/22 07:41:17;;;;;;;4.03;1.40;;;;;;;;;;5014967;28;22914;-81
2021/11/22 07:43:43;;;;;;;6.18;1.73;;;;;;;;;;5013362;28;20017;-82
2021/11/22 07:46:08;;;;;;;5.00;1.33;;;;;;;;;;5015087;28;20041;-85
2021/11/22 07:48:34;;;;;;;4.43;1.30;;;;;;;;;;5028039;28;21908;-82
2021/11/22 07:51:02;;;;;;;4.45;1.60;;;;;;;;;;5014509;28;20040;-82
2021/11/22 07:53:27;;;;;;;3.00;1.40;;;;;;;;;;5032842;28;20122;-82
2021/11/22 07:55:53;;;;;;;5.88;1.90;;;;;;;;;;5028643;28;20505;-82
2021/11/22 07:58:18;;;;;;;5.95;2.63;;;;;;;;;;5014557;28;20026;-81
2021/11/22 08:00:43;;;;;;;5.70;1.95;;;;;;;;;;5043110;28;20029;-81
2021/11/22 08:03:09;;;;;;;4.32;2.15;;;;;;;;;;5032564;28;20468;-85
2021/11/22 08:05:34;;;;;;;8.90;2.40;;;;;;;;;;5017845;28;20025;-82
2021/11/22 08:08:02;;;;;;;5.45;2.20;;;;;;;;;;5019719;28;20035;-79
2021/11/22 08:10:29;;;;;;;4.25;2.05;;;;;;;;;;5028552;28;20057;-79
2021/11/22 08:13:00;;;;;;;5.63;2.35;;;;;;;;;;5032787;28;20026;-80
2021/11/22 08:15:27;;;;;;;8.55;2.38;;;;;;;;;;5015623;28;20083;-82
2021/11/22 08:17:53;;;;;;;7.43;2.58;;;;;;;;;;5014085;28;20026;-85
2021/11/22 08:20:21;;;;;;;6.97;2.85;;;;;;;;;;5018454;28;20120;-84
2021/11/22 08:22:48;;;;;;;5.63;2.50;;;;;;;;;;5025935;28;20090;-79
2021/11/22 08:25:15;;;;;;;4.50;2.33;;;;;;;;;;5018290;28;20055;-82
2021/11/22 08:27:41;;;;;;;4.63;2.20;;;;;;;;;;5012362;28;20033;-85
2021/11/22 08:30:10;;;;;;;7.38;2.20;;;;;;;;;;5015942;28;20045;-83
2021/11/22 08:32:37;;;;;;;4.65;2.00;;;;;;;;;;5033302;28;20022;-82
2021/11/22 08:35:04;;;;;;;4.97;1.95;;;;;;;;;;5023751;28;20025;-85
2021/11/22 08:37:38;;;;;;;4.80;1.85;;;;;;;;;;5029388;28;20035;-85
2021/11/22 08:40:08;;;;;;;3.33;1.83;;;;;;;;;;5027123;28;20471;-82
2021/11/22 08:42:40;;;;;;;4.85;1.90;;;;;;;;;;5020128;28;20125;-78
2021/11/22 08:45:09;;;;;;;5.53;1.73;;;;;;;;;;5024576;28;20025;-82
2021/11/22 08:47:35;;;;;;;5.88;2.03;;;;;;;;;;5029964;28;20051;-79
2021/11/22 08:50:01;;;;;;;3.80;1.65;;;;;;;;;;5037742;28;20064;-79
2021/11/22 08:52:27;;;;;;;4.30;1.48;;;;;;;;;;5016162;28;20030;-82
2021/11/22 08:55:04;;;;;;;4.32;1.60;;;;;;;;;;5019264;28;20465;-84
2021/11/22 08:57:29;;;;;;;5.25;1.95;;;;;;;;;;5029470;28;20541;-82
2021/11/22 08:59:55;;;;;;;3.50;1.58;;;;;;;;;;5016169;28;20025;-82
2021/11/22 09:02:21;;;;;;;3.88;1.52;;;;;;;;;;5007417;28;20052;-82
2021/11/22 09:04:49;;;;;;;4.90;1.80;;;;;;;;;;5028808;28;20668;-79
2021/11/22 09:07:14;;;;;;;5.65;2.00;;;;;;;;;;4994028;28;20100;-82
2021/11/22 09:09:40;;;;;;;6.50;2.47;;;;;;;;;;5025184;28;20053;-82
2021/11/22 09:12:05;;;;;;;6.38;2.13;;;;;;;;;;5016675;28;20053;-82
2021/11/22 09:14:34;;;;;;;3.65;2.05;;;;;;;;;;5008573;28;20083;-81
2021/11/22 09:17:00;;;;;;;3.08;1.75;;;;;;;;;;5028312;28;20626;-85
2021/11/22 09:19:36;;;;;;;3.97;1.65;;;;;;;;;;5018112;28;20033;-82
2021/11/22 09:22:02;;;;;;;4.47;1.80;;;;;;;;;;5012400;28;20037;-82
2021/11/22 09:24:27;;;;;;;5.72;1.33;;;;;;;;;;5024001;28;20021;-80
2021/11/22 09:26:53;;;;;;;4.00;1.40;;;;;;;;;;5026609;28;20459;-82
2021/11/22 09:29:18;;;;;;;5.22;1.60;;;;;;;;;;5036287;28;20043;-82
2021/11/22 09:31:43;;;;;;;3.75;1.55;;;;;;;;;;5026754;28;20034;-84
2021/11/22 09:34:09;;;;;;;4.45;1.60;;;;;;;;;;5026460;28;20045;-81
2021/11/22 09:36:34;;;;;;;6.75;1.75;;;;;;;;;;5025668;28;20492;-82
2021/11/22 09:39:00;;;;;;;4.10;1.40;;;;;;;;;;5013781;28;20025;-80
2021/11/22 09:41:28;;;;;;;4.63;1.45;;;;;;;;;;5018429;28;20079;-81
2021/11/22 09:43:56;;;;;;;4.32;1.50;;;;;;;;;;5026827;28;20036;-83
2021/11/22 09:46:21;;;;;;;4.63;1.40;;;;;;;;;;5026728;28;20455;-79
2021/11/22 09:48:47;;;;;;;5.05;1.20;;;;;;;;;;5006691;28;20057;-82
2021/11/22 09:51:13;;;;;;;3.75;1.20;;;;;;;;;;5022589;28;20029;-81
2021/11/22 09:53:40;;;;;;;5.57;1.88;;;;;;;;;;5005347;28;20496;-81
2021/11/22 09:56:06;;;;;;;2.97;1.50;;;;;;;;;;5004834;28;20055;-83
2021/11/22 09:58:32;;;;;;;4.85;1.60;;;;;;;;;;5010232;28;20037;-83
2021/11/22 10:01:13;;;;;;;3.55;1.40;;;;;;;;;;5007692;28;20112;-81
2021/11/22 10:03:38;;;;;;;3.97;1.45;;;;;;;;;;5002183;28;20025;-79
2021/11/22 10:06:04;;;;;;;4.25;1.50;;;;;;;;;;5025768;28;20496;-82
2021/11/22 10:08:38;;;;;;;4.30;1.30;;;;;;;;;;5008766;28;20034;-79
2021/11/22 10:11:08;;;;;;;5.78;1.45;;;;;;;;;;5022573;28;20041;-82
2021/11/22 10:13:36;;;;;;;4.18;1.70;;;;;;;;;;5025294;28;20036;-83
2021/11/22 10:16:08;;;;;;;5.38;1.90;;;;;;;;;;5002654;28;20045;-81
2021/11/22 10:18:39;;;;;;;4.95;1.80;;;;;;;;;;5004681;28;20848;-79
2021/11/22 10:21:08;;;;;;;2.85;1.40;;;;;;;;;;5024284;28;20032;-81
2021/11/22 10:23:36;;;;;;;2.63;1.30;;;;;;;;;;5025778;28;20025;-84
2021/11/22 10:26:02;;;;;;;3.63;1.35;;;;;;;;;;5027920;28;20034;-80
2021/11/22 10:28:36;;;;;;;6.47;1.40;;;;;;;;;;5013000;28;20137;-83
2021/11/22 10:31:06;;;;;;;4.00;1.23;;;;;;;;;;5030702;28;20045;-83
2021/11/22 10:33:37;;;;;;;3.35;1.10;;;;;;;;;;5005755;28;20029;-83
2021/11/22 10:36:11;;;;;;;3.90;1.35;;;;;;;;;;5032693;28;20041;-83
2021/11/22 10:38:39;;;;;;;3.20;1.42;;;;;;;;;;5006844;28;20078;-84
2021/11/22 10:41:15;;;;;;;6.45;1.40;;;;;;;;;;5011814;28;20026;-81
2021/11/22 10:43:51;;;;;;;3.08;1.50;;;;;;;;;;5009837;28;20117;-83
2021/11/22 10:46:24;;;;;;;2.47;1.23;;;;;;;;;;5013295;28;20029;-84
2021/11/22 10:48:53;;;;;;;4.00;1.30;;;;;;;;;;5002738;28;20511;-83
2021/11/22 10:51:26;;;;;;;3.70;1.67;;;;;;;;;;5011271;28;20059;-80
2021/11/22 10:54:05;;;;;;;3.45;1.30;;;;;;;;;;5024454;28;20026;-85
2021/11/22 10:56:37;;;;;;;4.60;1.20;;;;;;;;;;5031219;28;20029;-84
2021/11/22 10:59:16;;;;;;;5.80;1.48;;;;;;;;;;5032966;28;20021;-84
2021/11/22 11:01:48;;;;;;;5.25;1.60;;;;;;;;;;5032509;28;20036;-83
2021/11/22 11:04:31;;;;;;;4.38;1.55;;;;;;;;;;5029080;28;20021;-79
2021/11/22 11:07:02;;;;;;;5.45;1.55;;;;;;;;;;5017397;28;20037;-83
2021/11/22 11:09:31;;;;;;;5.18;1.60;;;;;;;;;;5018584;28;20045;-84
2021/11/22 11:12:15;;;;;;;6.00;1.60;;;;;;;;;;5008803;28;20033;-83
2021/11/22 11:14:46;;;;;;;9.02;1.40;;;;;;;;;;5046883;28;20029;-81
2021/11/22 11:17:22;;;;;;;3.53;1.50;;;;;;;;;;5037687;28;20373;-78
2021/11/22 11:19:50;;;;;;;4.05;1.70;;;;;;;;;;5035976;28;20028;-80
2021/11/22 11:22:16;;;;;;;4.43;1.50;;;;;;;;;;5034878;28;20029;-81
2021/11/22 11:24:43;;;;;;;4.80;1.42;;;;;;;;;;5033325;28;20048;-84
2021/11/22 11:27:08;;;;;;;2.22;1.23;;;;;;;;;;5031113;28;20078;-84
2021/11/22 11:29:34;;;;;;;2.92;1.30;;;;;;;;;;5029202;28;20033;-84
2021/11/22 11:31:59;;;;;;;3.13;1.17;;;;;;;;;;5016874;28;20025;-84
2021/11/22 11:34:31;;;;;;;2.40;1.20;;;;;;;;;;5016846;28;20115;-84
2021/11/22 11:37:08;;;;;;;2.10;1.40;;;;;;;;;;5030778;28;20048;-80
2021/11/22 11:40:01;;;;;;;2.15;1.23;;;;;;;;;;5034742;28;20468;-81
2021/11/22 11:43:04;;;;;;;4.60;1.60;;;;;;;;;;5033183;28;20017;-79
2021/11/22 11:45:51;;;;;;;4.90;2.07;;;;;;;;;;5023043;28;20116;-78
2021/11/22 11:48:54;;;;;;;9.98;1.60;;;;;;;;;;5021112;28;20278;-80
2021/11/22 11:51:27;;;;;;;4.85;1.85;;;;;;;;;;5025303;28;20025;-80
2021/11/22 11:54:06;;;;;;;;;;;;;;;;;;5034585;28;20036;-83
2021/11/22 11:56:39;;;;;;;2.47;1.40;;;;;;;;;;5031904;28;20283;-84
2021/11/22 11:59:18;;;;;;;6.10;1.75;;;;;;;;;;5030648;28;20491;-83
2021/11/22 12:02:03;;;;;;;3.63;1.48;;;;;;;;;;5016904;28;20030;-78
2021/11/22 12:04:50;;;;;;;4.68;1.40;;;;;;;;;;5032841;28;20029;-81
2021/11/22 12:07:29;;;;;;;3.38;1.60;;;;;;;;;;5032405;28;20125;-83
2021/11/22 12:10:12;;;;;;;5.05;1.70;;;;;;;;;;5031779;28;20061;-80
2021/11/22 12:12:57;;;;;;;4.07;1.30;;;;;;;;;;5027606;28;20100;-85
2021/11/22 12:15:31;;;;;;;2.92;1.15;;;;;;;;;;5035784;28;20095;-83
2021/11/22 12:18:03;;;;;;;4.32;1.42;;;;;;;;;;5016861;28;20024;-82
2021/11/22 12:20:29;;;;;;;4.82;1.25;;;;;;;;;;5036684;28;20037;-80
2021/11/22 12:22:56;;;;;;;6.65;0.98;;;;;;;;;;5018527;28;20041;-80
2021/11/22 12:25:53;;;;;;;4.15;0.90;;;;;;;;;;5021217;28;20033;-82
2021/11/22 12:28:38;;;;;;;1.50;0.70;;;;;;;;;;5028574;28;20455;-80
2021/11/22 12:31:06;;;;;;;2.65;0.80;;;;;;;;;;5032333;28;20040;-79
2021/11/22 12:33:34;;;;;;;2.45;0.80;;;;;;;;;;5016045;28;20034;-82
2021/11/22 12:36:04;;;;;;;5.00;0.90;;;;;;;;;;5008805;28;20025;-80
2021/11/22 12:38:32;;;;;;;3.28;1.00;;;;;;;;;;5013317;28;20044;-82
2021/11/22 12:41:01;;;;;;;2.20;0.80;;;;;;;;;;5027200;28;20025;-80
2021/11/22 12:43:52;;;;;;;2.75;0.88;;;;;;;;;;5030460;28;20029;-79
2021/11/22 12:46:21;;;;;;;3.05;0.85;;;;;;;;;;5033564;28;20060;-82
2021/11/22 12:48:49;;;;;;;3.05;0.90;;;;;;;;;;5030097;28;20029;-82
2021/11/22 12:51:17;;;;;;;3.42;1.10;;;;;;;;;;5035982;28;20030;-83
2021/11/22 12:54:01;;;;;;;2.15;0.90;;;;;;;;;;5017046;28;20029;-82
2021/11/22 12:56:28;;;;;;;2.92;0.90;;;;;;;;;;5026142;28;20125;-82
2021/11/22 12:59:16;;;;;;;2.30;0.85;;;;;;;;;;5030794;28;20374;-78
2021/11/22 13:01:46;;;;;;;4.07;0.65;;;;;;;;;;5014499;28;20037;-80
2021/11/22 13:05:00;;;;;;;3.38;1.00;;;;;;;;;;5036320;28;20028;-82
2021/11/22 13:07:34;;;;;;;;;;;;;;;;;;4999756;28;20485;-80
2021/11/22 13:10:03;;;;;;;0.85;0.50;;;;;;;;;;5029825;28;19925;-80
2021/11/22 13:12:38;;;;;;;3.00;0.65;;;;;;;;;;5032118;28;20025;-82
2021/11/22 13:15:21;;;;;;;3.67;0.90;;;;;;;;;;5015350;28;20021;-81
2021/11/22 13:17:46;;;;;;;3.85;0.63;;;;;;;;;;5033647;28;20020;-80
2021/11/22 13:20:12;;;;;;;2.15;0.60;;;;;;;;;;5027678;28;20116;-80
2021/11/22 13:22:37;;;;;;;1.88;0.50;;;;;;;;;;5025489;28;20025;-82
2021/11/22 13:25:20;;;;;;;1.83;0.57;;;;;;;;;;5028964;28;20029;-82
2021/11/22 13:28:09;;;;;;;1.60;0.43;;;;;;;;;;5033107;28;20108;-80
2021/11/22 13:30:37;;;;;;;2.40;0.45;;;;;;;;;;5010039;28;20033;-78
2021/11/22 13:33:03;;;;;;;3.50;0.55;;;;;;;;;;5015734;28;20037;-79
2021/11/22 13:35:29;;;;;;;3.20;0.55;;;;;;;;;;5021207;28;20055;-82
2021/11/22 13:38:18;;;;;;;4.28;0.60;;;;;;;;;;5027156;28;20021;-79
2021/11/22 13:40:48;;;;;;;4.07;0.47;;;;;;;;;;5029038;28;20034;-82
2021/11/22 13:43:16;;;;;;;3.28;0.70;;;;;;;;;;5031553;28;20036;-82
2021/11/22 13:45:53;;;;;;;1.77;0.50;;;;;;;;;;5035326;28;20808;-82
2021/11/22 13:48:18;;;;;;;1.77;0.60;;;;;;;;;;5027789;28;20497;-79
2021/11/22 13:50:46;;;;;;;3.38;0.80;;;;;;;;;;5031913;28;20063;-82
2021/11/22 13:53:13;;;;;;;1.75;0.60;;;;;;;;;;5032717;28;20025;-83
2021/11/22 13:55:39;;;;;;;5.50;1.05;;;;;;;;;;5007631;28;20048;-81
2021/11/22 13:58:14;;;;;;;2.38;0.77;;;;;;;;;;5013083;28;20033;-78
2021/11/22 14:01:00;;;;;;;2.97;0.50;;;;;;;;;;5034031;28;20055;-79
2021/11/22 14:03:29;;;;;;;2.08;0.60;;;;;;;;;;5026272;28;20064;-82
2021/11/22 14:05:56;;;;;;;0.73;0.50;;;;;;;;;;5027029;28;20055;-82
2021/11/22 14:08:23;;;;;;;2.85;0.75;;;;;;;;;;5033074;28;20385;-82
2021/11/22 14:10:49;;;;;;;2.47;0.90;;;;;;;;;;5017782;28;20129;-79
2021/11/22 14:13:17;;;;;;;2.35;0.60;;;;;;;;;;5030315;28;20033;-82
2021/11/22 14:15:48;;;;;;;1.48;0.60;;;;;;;;;;5008989;28;20036;-82
2021/11/22 14:18:20;;;;;;;3.22;0.90;;;;;;;;;;5026632;28;20041;-82
2021/11/22 14:20:53;;;;;;;1.23;0.60;;;;;;;;;;5007573;28;20033;-79
2021/11/22 14:23:24;;;;;;;3.40;0.60;;;;;;;;;;5028140;28;20060;-82
2021/11/22 14:26:05;;;;;;;1.77;0.50;;;;;;;;;;5026912;28;20033;-81
2021/11/22 14:28:47;;;;;;;3.08;0.88;;;;;;;;;;5008217;28;20025;-79
2021/11/22 14:31:26;;;;;;;1.92;0.80;;;;;;;;;;5024891;28;20098;-82
2021/11/22 14:33:52;;;;;;;2.92;1.00;;;;;;;;;;5029211;28;20041;-82
2021/11/22 14:36:30;;;;;;;;;;;;;;;;;;;;;
2021/11/22 14:38:59;;;;;;;4.60;1.00;;;;;;;;;;5021916;28;20048;-80
2021/11/22 14:41:27;;;;;;;2.47;0.80;;;;;;;;;;5002543;28;20092;-83
2021/11/22 14:43:58;;;;;;;2.25;0.80;;;;;;;;;;5010476;28;20053;-82
2021/11/22 14:46:30;;;;;;;3.20;0.80;;;;;;;;;;5002204;28;20080;-81
2021/11/22 14:49:09;;;;;;;2.53;0.98;;;;;;;;;;5028782;28;20033;-81
2021/11/22 14:51:44;;;;;;;2.40;0.80;;;;;;;;;;5002966;28;20049;-82
2021/11/22 14:54:21;;;;;;;1.80;0.90;;;;;;;;;;5023453;28;20910;-82
2021/11/22 14:57:01;;;;;;;2.13;0.90;;;;;;;;;;5020050;28;20030;-79